Time;durP1;ratioP1;P1;durP2;ratioP2;P2;SDS_P1;SDS_P2;PMS_P1;PMS_P2;Temp;Humidity;BMP_temperature;BMP_pressure;BME280_temperature;BME280_humidity;BME280_pressure;Samples;Min_cycle;Max_cycle;Signal;HPM_P1;HPM_P2
2023/04/05 00:01:36;;;;;;;13.05;6.75;;;;;;;5.21;58.78;102197.28;3603924;39;20043;-65
2023/04/05 00:04:04;;;;;;;12.10;7.60;;;;;;;4.91;58.05;102156.03;3613913;39;20314;-65
2023/04/05 00:06:30;;;;;;;11.93;7.38;;;;;;;5.06;58.88;102195.75;3603623;39;20070;-65
2023/04/05 00:09:06;;;;;;;13.35;7.72;;;;;;;5.12;59.28;102209.88;3615250;39;20363;-65
2023/04/05 00:11:33;;;;;;;11.43;7.80;;;;;;;5.10;59.31;102206.34;3605313;39;20105;-65
2023/04/05 00:14:01;;;;;;;10.57;7.25;;;;;;;5.09;59.15;102220.56;3613303;39;20053;-65
2023/04/05 00:16:29;;;;;;;11.35;7.30;;;;;;;5.06;60.15;102209.09;3612633;39;20357;-64
2023/04/05 00:18:59;;;;;;;10.88;7.05;;;;;;;5.02;59.02;102208.25;3613788;39;20051;-64
2023/04/05 00:21:25;;;;;;;11.98;7.80;;;;;;;4.92;58.81;102196.00;3612994;39;20051;-63
2023/04/05 00:23:57;;;;;;;10.07;6.90;;;;;;;4.61;58.66;102137.00;3616705;39;20095;-63
2023/04/05 00:26:24;;;;;;;12.35;7.38;;;;;;;4.92;58.91;102206.66;3612819;39;20053;-64
2023/04/05 00:28:50;;;;;;;13.30;8.05;;;;;;;4.87;59.67;102206.72;3613029;39;20055;-64
2023/04/05 00:31:17;;;;;;;11.70;7.30;;;;;;;4.81;60.52;102193.50;3613492;39;20043;-65
2023/04/05 00:33:45;;;;;;;12.65;7.72;;;;;;;4.64;61.08;102176.91;3614807;39;20127;-65
2023/04/05 00:36:13;;;;;;;11.07;7.35;;;;;;;4.72;60.92;102192.75;3614716;39;20309;-65
2023/04/05 00:38:41;;;;;;;12.05;7.38;;;;;;;4.66;62.25;102199.06;3615388;39;20083;-65
2023/04/05 00:41:08;;;;;;;12.00;8.35;;;;;;;4.61;61.77;102190.28;3617588;39;20108;-65
2023/04/05 00:43:34;;;;;;;14.40;7.93;;;;;;;4.57;62.25;102188.56;3615035;39;20047;-65
2023/04/05 00:46:01;;;;;;;14.70;8.40;;;;;;;4.25;62.32;102141.09;3607930;39;20080;-65
2023/04/05 00:48:28;;;;;;;13.48;8.27;;;;;;;4.49;62.48;102183.34;3618055;39;20119;-65
2023/04/05 00:50:54;;;;;;;12.88;7.97;;;;;;;4.46;62.95;102179.84;3617239;39;20047;-65
2023/04/05 00:53:20;;;;;;;12.07;7.85;;;;;;;4.42;62.92;102184.34;3614505;39;20051;-65
2023/04/05 00:55:49;;;;;;;12.45;8.38;;;;;;;4.40;63.13;102181.69;3614650;39;20069;-65
2023/04/05 00:58:22;;;;;;;12.07;8.63;;;;;;;4.38;63.39;102180.84;3617457;39;20051;-64
2023/04/05 01:01:21;;;;;;;14.48;8.15;;;;;;;4.36;62.98;102184.44;3616402;39;20062;-65
2023/04/05 01:03:59;;;;;;;12.15;7.30;;;;;;;4.27;63.25;102173.91;3618615;39;20047;-65
2023/04/05 01:06:45;;;;;;;13.93;7.70;;;;;;;4.34;63.17;102187.09;3615524;39;20082;-64
2023/04/05 01:09:35;;;;;;;12.38;7.68;;;;;;;4.31;63.63;102192.47;3606396;39;20067;-64
2023/04/05 01:12:08;;;;;;;14.32;9.05;;;;;;;4.30;63.41;102192.50;3615260;39;20197;-65
2023/04/05 01:14:50;;;;;;;12.95;8.13;;;;;;;4.25;63.32;102189.91;3614813;39;20350;-65
2023/04/05 01:17:26;;;;;;;12.07;7.75;;;;;;;3.42;63.45;102052.66;3614788;39;20313;-65
2023/04/05 01:19:59;;;;;;;13.95;8.40;;;;;;;4.15;64.65;102190.91;3616981;39;20047;-65
2023/04/05 01:22:50;;;;;;;12.80;8.35;;;;;;;4.12;64.56;102188.28;3615890;39;20379;-65
2023/04/05 01:25:58;;;;;;;12.98;7.90;;;;;;;4.06;63.72;102180.38;3618513;39;20043;-65
2023/04/05 01:28:56;;;;;;;12.60;8.05;;;;;;;4.00;64.12;102180.50;3616154;39;20059;-65
2023/04/05 01:31:36;;;;;;;13.32;8.27;;;;;;;3.95;64.33;102176.09;3616766;39;20364;-64
2023/04/05 01:34:24;;;;;;;11.45;7.78;;;;;;;3.88;65.22;102171.75;3616764;39;20560;-65
2023/04/05 01:37:08;;;;;;;13.05;8.23;;;;;;;3.83;66.50;102170.91;3617300;39;20055;-64
2023/04/05 01:39:35;;;;;;;;;;;;;;;3.80;66.67;102162.09;3618117;39;20104;-65
2023/04/05 01:42:02;;;;;;;11.77;7.93;;;;;;;3.75;66.62;102172.81;3623472;39;20253;-64
2023/04/05 01:44:29;;;;;;;10.32;7.70;;;;;;;3.73;66.74;102169.28;3616970;39;20054;-65
2023/04/05 01:46:55;;;;;;;11.82;8.30;;;;;;;3.69;66.64;102164.91;3617286;39;20039;-65
2023/04/05 01:49:22;;;;;;;12.45;8.23;;;;;;;3.66;66.89;102170.25;3619091;39;20089;-65
2023/04/05 01:51:47;;;;;;;11.63;8.20;;;;;;;3.61;66.79;102162.31;3617287;39;20071;-65
2023/04/05 01:54:13;;;;;;;13.50;8.27;;;;;;;3.57;66.95;102151.75;3616306;39;20058;-65
2023/04/05 01:56:39;;;;;;;14.73;8.52;;;;;;;3.44;67.58;102140.38;3615932;39;20354;-65
2023/04/05 01:59:04;;;;;;;15.52;8.45;;;;;;;3.48;66.95;102153.59;3619504;39;20051;-65
2023/04/05 02:01:30;;;;;;;14.52;8.52;;;;;;;3.47;67.63;102153.63;3616187;39;20066;-65
2023/04/05 02:03:55;;;;;;;12.32;8.68;;;;;;;3.41;67.69;102149.25;3607554;39;20085;-65
2023/04/05 02:06:22;;;;;;;13.40;9.00;;;;;;;3.37;66.93;102144.88;3616063;39;20285;-65
2023/04/05 02:08:47;;;;;;;14.90;8.10;;;;;;;3.41;67.92;102151.03;3617972;39;20046;-65
2023/04/05 02:11:13;;;;;;;12.48;8.43;;;;;;;3.38;67.17;102143.09;3616021;39;20335;-65
2023/04/05 02:13:39;;;;;;;12.32;8.48;;;;;;;3.36;67.15;102143.13;3616425;39;20066;-65
2023/04/05 02:16:04;;;;;;;12.00;8.57;;;;;;;3.35;67.33;102149.31;3619816;39;20058;-66
2023/04/05 02:18:30;;;;;;;13.85;8.30;;;;;;;3.33;67.95;102155.53;3616898;39;20070;-65
2023/04/05 02:21:09;;;;;;;12.10;8.50;;;;;;;3.30;67.52;102139.63;3616868;39;20043;-65
2023/04/05 02:23:36;;;;;;;13.88;8.40;;;;;;;3.26;66.90;102139.66;3615595;39;20059;-65
2023/04/05 02:26:02;;;;;;;13.50;8.43;;;;;;;3.26;67.88;102144.09;3616709;39;20154;-65
2023/04/05 02:28:28;;;;;;;14.70;7.72;;;;;;;3.26;68.05;102133.47;3610261;39;20429;-65
2023/04/05 02:30:54;;;;;;;14.32;8.35;;;;;;;3.27;67.13;102143.22;3619646;39;20051;-65
2023/04/05 02:33:23;;;;;;;13.63;8.90;;;;;;;3.00;66.86;102096.53;3615135;39;20043;-65
2023/04/05 02:35:51;;;;;;;12.57;8.05;;;;;;;2.99;66.76;102098.31;3614814;39;20112;-66
2023/04/05 02:38:17;;;;;;;12.77;8.18;;;;;;;3.22;67.80;102142.38;3616081;39;20289;-65
2023/04/05 02:40:48;;;;;;;12.93;8.20;;;;;;;3.11;67.88;102123.00;3613020;39;20050;-65
2023/04/05 02:43:14;;;;;;;12.65;8.50;;;;;;;3.15;67.30;102136.25;3615394;39;20066;-65
2023/04/05 02:45:39;;;;;;;16.98;8.38;;;;;;;3.15;66.83;102135.38;3614390;39;20406;-65
2023/04/05 02:48:05;;;;;;;13.00;8.38;;;;;;;3.13;67.89;102137.16;3616411;39;20043;-65
2023/04/05 02:50:31;;;;;;;15.13;8.45;;;;;;;2.61;67.54;102047.38;3613915;39;20062;-65
2023/04/05 02:52:57;;;;;;;15.23;8.90;;;;;;;3.11;69.18;102133.63;3615419;39;20043;-65
2023/04/05 02:55:23;;;;;;;17.33;9.43;;;;;;;3.11;68.26;102128.31;3614032;39;20047;-65
2023/04/05 02:57:49;;;;;;;13.98;8.90;;;;;;;3.08;69.87;102133.69;3604263;39;20436;-65
2023/04/05 03:00:15;;;;;;;14.93;8.55;;;;;;;2.97;68.87;102121.34;3613749;39;20050;-66
2023/04/05 03:02:41;;;;;;;12.93;8.68;;;;;;;2.99;69.84;102129.31;3615977;39;20119;-64
2023/04/05 03:05:08;;;;;;;14.85;8.75;;;;;;;2.96;70.91;102124.91;3611136;39;20050;-65
2023/04/05 03:07:34;;;;;;;16.48;9.45;;;;;;;2.95;71.13;102123.16;3614498;39;20054;-65
2023/04/05 03:09:59;;;;;;;17.63;9.93;;;;;;;2.82;71.64;102110.88;3615834;39;20385;-65
2023/04/05 03:12:25;;;;;;;13.35;8.93;;;;;;;2.91;70.89;102117.88;3605266;39;20288;-65
2023/04/05 03:14:52;;;;;;;15.02;9.23;;;;;;;2.84;71.61;102117.06;3614200;39;20116;-65
2023/04/05 03:17:17;;;;;;;15.75;9.27;;;;;;;2.82;71.12;102113.53;3614961;39;20059;-65
2023/04/05 03:19:44;;;;;;;13.45;8.65;;;;;;;2.81;71.30;102105.59;3614189;39;20081;-65
2023/04/05 03:22:10;;;;;;;15.55;9.48;;;;;;;2.73;70.76;102095.94;3614654;39;20054;-65
2023/04/05 03:24:35;;;;;;;13.88;8.73;;;;;;;2.76;70.79;102106.53;3614278;39;20047;-64
2023/04/05 03:27:04;;;;;;;14.48;8.55;;;;;;;2.74;71.16;102107.41;3614048;39;20305;-64
2023/04/05 03:29:30;;;;;;;13.52;8.30;;;;;;;2.25;70.10;102023.81;3613647;39;20124;-65
2023/04/05 03:31:58;;;;;;;16.17;9.18;;;;;;;2.68;69.76;102104.81;3613886;39;20054;-65
2023/04/05 03:34:27;;;;;;;12.82;8.32;;;;;;;2.66;71.05;102106.59;3614551;39;20373;-65
2023/04/05 03:36:54;;;;;;;11.88;8.98;;;;;;;2.64;71.58;102108.41;3613762;39;20043;-66
2023/04/05 03:39:20;;;;;;;15.63;8.93;;;;;;;2.61;71.63;102103.13;3616995;39;20476;-65
2023/04/05 03:41:45;;;;;;;15.02;8.77;;;;;;;2.59;71.92;102092.50;3617259;39;20046;-65
2023/04/05 03:44:11;;;;;;;17.08;9.50;;;;;;;2.59;71.99;102107.53;3614068;39;20057;-65
2023/04/05 03:46:37;;;;;;;13.40;8.90;;;;;;;2.53;71.17;102089.88;3613231;39;20309;-66
2023/04/05 03:49:03;;;;;;;15.65;9.48;;;;;;;2.53;71.69;102098.72;3615697;39;20053;-65
2023/04/05 03:51:28;;;;;;;14.15;8.88;;;;;;;2.47;71.72;102096.13;3613956;39;20090;-65
2023/04/05 03:53:54;;;;;;;12.95;8.95;;;;;;;2.48;72.16;102097.03;3615439;39;20306;-65
2023/04/05 03:56:20;;;;;;;17.75;9.50;;;;;;;2.48;71.24;102097.03;3613865;39;20054;-66
2023/04/05 03:58:46;;;;;;;16.02;8.82;;;;;;;2.28;70.57;102065.31;3615337;39;20284;-66
2023/04/05 04:01:12;;;;;;;11.63;8.40;;;;;;;2.19;70.12;102044.16;3613041;39;20095;-65
2023/04/05 04:03:38;;;;;;;14.70;8.73;;;;;;;2.47;71.17;102088.16;3613627;39;20317;-66
2023/04/05 04:06:06;;;;;;;13.90;8.98;;;;;;;2.49;70.55;102089.03;3613448;39;20050;-65
2023/04/05 04:08:32;;;;;;;16.38;8.18;;;;;;;2.36;69.66;102057.31;3613701;39;20055;-65
2023/04/05 04:10:58;;;;;;;14.15;8.30;;;;;;;2.46;69.86;102081.09;3613188;39;20094;-66
2023/04/05 04:13:24;;;;;;;14.13;8.73;;;;;;;2.49;70.26;102083.72;3614000;39;20049;-66
2023/04/05 04:15:50;;;;;;;13.68;8.88;;;;;;;2.48;68.76;102079.31;3615605;39;20051;-66
2023/04/05 04:18:15;;;;;;;13.82;8.27;;;;;;;2.45;68.61;102083.78;3613373;39;20067;-66
2023/04/05 04:20:41;;;;;;;15.80;8.93;;;;;;;2.35;68.46;102075.03;3614004;39;20062;-66
2023/04/05 04:23:08;;;;;;;14.85;9.00;;;;;;;2.30;69.70;102069.72;3615949;39;20054;-66
2023/04/05 04:25:36;;;;;;;13.88;8.82;;;;;;;2.30;68.89;102080.34;3618131;39;20370;-66
2023/04/05 04:28:08;;;;;;;12.73;8.43;;;;;;;2.32;69.83;102088.31;3615448;39;20047;-65
2023/04/05 04:30:34;;;;;;;15.00;9.32;;;;;;;2.31;69.97;102086.53;3615220;39;20358;-66
2023/04/05 04:33:03;;;;;;;12.32;8.32;;;;;;;2.29;70.03;102085.69;3614687;39;20057;-66
2023/04/05 04:35:33;;;;;;;13.35;8.88;;;;;;;2.29;68.86;102083.91;3615516;39;20066;-66
2023/04/05 04:38:04;;;;;;;13.32;8.60;;;;;;;2.30;69.03;102087.41;3615041;39;20047;-66
2023/04/05 04:40:37;;;;;;;15.02;8.82;;;;;;;2.30;68.46;102084.78;3613112;39;20669;-66
2023/04/05 04:43:17;;;;;;;15.13;8.85;;;;;;;2.15;68.98;102053.03;3613687;39;20043;-66
2023/04/05 04:45:48;;;;;;;15.32;9.07;;;;;;;2.13;68.29;102049.53;3613119;39;20401;-66
2023/04/05 04:48:15;;;;;;;14.30;9.15;;;;;;;2.07;68.53;102039.84;3615716;39;20066;-65
2023/04/05 04:50:46;;;;;;;14.07;9.18;;;;;;;2.28;69.04;102075.94;3614542;39;20058;-66
2023/04/05 04:53:16;;;;;;;19.80;10.15;;;;;;;2.08;68.67;102049.56;3612817;39;20419;-65
2023/04/05 04:55:41;;;;;;;17.17;9.20;;;;;;;1.82;69.15;102005.53;3616933;39;20323;-66
2023/04/05 04:58:09;;;;;;;15.93;9.23;;;;;;;2.02;69.40;102044.28;3614924;39;20051;-65
2023/04/05 05:00:40;;;;;;;17.77;9.40;;;;;;;2.25;69.13;102075.94;3613601;39;20051;-65
2023/04/05 05:03:07;;;;;;;13.35;9.10;;;;;;;2.27;68.29;102077.72;3613055;39;20055;-65
2023/04/05 05:05:33;;;;;;;15.82;9.10;;;;;;;2.29;67.33;102083.03;3614620;39;20053;-65
2023/04/05 05:07:59;;;;;;;16.05;9.23;;;;;;;2.29;68.55;102077.72;3614756;39;20277;-66
2023/04/05 05:10:25;;;;;;;12.98;8.60;;;;;;;2.30;68.73;102087.41;3613173;39;20599;-64
2023/04/05 05:12:50;;;;;;;19.05;8.63;;;;;;;2.30;68.43;102084.78;3613104;39;20088;-64
2023/04/05 05:15:16;;;;;;;15.88;8.90;;;;;;;1.58;68.79;101969.47;3613148;39;20055;-67
2023/04/05 05:17:43;;;;;;;14.35;9.07;;;;;;;2.30;68.42;102085.66;3607123;39;20058;-67
2023/04/05 05:20:10;;;;;;;15.55;8.73;;;;;;;2.31;68.83;102081.22;3615460;39;20067;-68
2023/04/05 05:22:38;;;;;;;17.60;8.98;;;;;;;2.32;67.33;102077.69;3614375;39;20362;-66
2023/04/05 05:25:06;;;;;;;15.88;9.40;;;;;;;2.30;67.68;102072.38;3615407;39;20127;-67
2023/04/05 05:27:32;;;;;;;17.35;8.80;;;;;;;2.32;68.62;102078.56;3614571;39;20063;-67
2023/04/05 05:29:58;;;;;;;14.23;8.35;;;;;;;2.32;68.33;102067.97;3615117;39;20065;-67
2023/04/05 05:32:24;;;;;;;15.20;8.52;;;;;;;2.41;67.55;102082.94;3615130;39;20054;-67
2023/04/05 05:34:50;;;;;;;13.90;8.32;;;;;;;2.44;67.28;102074.03;3614742;39;20046;-67
2023/04/05 05:37:16;;;;;;;11.63;7.95;;;;;;;2.21;66.78;102031.78;3614813;39;20061;-67
2023/04/05 05:39:45;;;;;;;13.75;8.75;;;;;;;2.49;67.38;102070.47;3614378;39;20509;-66
2023/04/05 05:42:10;;;;;;;12.73;8.80;;;;;;;2.54;68.04;102071.31;3617644;39;20054;-67
2023/04/05 05:44:36;;;;;;;14.55;9.02;;;;;;;2.59;68.61;102065.94;3610690;39;20050;-67
2023/04/05 05:47:02;;;;;;;15.43;8.63;;;;;;;2.64;67.92;102068.59;3615573;39;20126;-66
2023/04/05 05:49:28;;;;;;;14.98;8.88;;;;;;;2.62;67.64;102070.34;3616296;39;20062;-67
2023/04/05 05:51:55;;;;;;;12.57;8.82;;;;;;;2.63;67.89;102064.16;3614409;39;20063;-67
2023/04/05 05:54:21;;;;;;;17.75;9.35;;;;;;;2.70;67.44;102071.19;3616305;39;20047;-66
2023/04/05 05:56:46;;;;;;;15.90;8.82;;;;;;;2.73;67.82;102072.03;3617624;39;20055;-67
2023/04/05 05:59:12;;;;;;;12.30;8.20;;;;;;;2.78;68.42;102072.84;3614801;39;20089;-67
2023/04/05 06:01:41;;;;;;;15.52;9.35;;;;;;;2.84;67.18;102079.88;3614453;39;20059;-67
2023/04/05 06:04:09;;;;;;;18.85;9.25;;;;;;;2.90;68.18;102073.63;3614300;39;20058;-67
2023/04/05 06:06:35;;;;;;;19.17;9.85;;;;;;;2.97;67.77;102078.84;3617532;39;20086;-67
2023/04/05 06:09:00;;;;;;;18.02;10.50;;;;;;;3.03;66.98;102062.84;3617413;39;20057;-67
2023/04/05 06:11:26;;;;;;;14.40;9.32;;;;;;;3.19;66.34;102081.28;3615529;39;20053;-68
2023/04/05 06:13:54;;;;;;;15.02;9.20;;;;;;;3.25;66.31;102067.94;3615742;39;20074;-67
2023/04/05 06:16:20;;;;;;;14.90;9.23;;;;;;;3.44;66.36;102069.47;3617800;39;20361;-67
2023/04/05 06:18:47;;;;;;;16.00;9.43;;;;;;;3.55;66.03;102077.31;3614229;39;20047;-67
2023/04/05 06:21:13;;;;;;;16.75;9.82;;;;;;;3.68;65.20;102084.25;3604463;39;20351;-67
2023/04/05 06:23:42;;;;;;;19.33;10.23;;;;;;;3.84;65.50;102090.25;3614661;39;20082;-67
2023/04/05 06:26:15;;;;;;;17.40;9.23;;;;;;;4.00;63.20;102084.72;3614647;39;20053;-67
2023/04/05 06:28:41;;;;;;;20.55;9.55;;;;;;;4.19;63.70;102088.88;3614829;39;20104;-67
2023/04/05 06:31:06;;;;;;;17.00;9.60;;;;;;;4.29;62.83;102076.28;3606747;39;20073;-67
2023/04/05 06:33:32;;;;;;;13.70;9.32;;;;;;;4.48;61.42;102082.19;3614937;39;20042;-67
2023/04/05 06:35:57;;;;;;;14.00;8.63;;;;;;;4.61;59.28;102089.94;3615967;39;20058;-68
2023/04/05 06:38:23;;;;;;;17.85;9.20;;;;;;;4.76;58.46;102086.16;3617953;39;20046;-68
2023/04/05 06:40:48;;;;;;;15.20;9.10;;;;;;;4.90;58.46;102085.91;3617655;39;20043;-68
2023/04/05 06:43:14;;;;;;;13.77;8.57;;;;;;;5.05;57.40;102079.44;3616825;39;20089;-68
2023/04/05 06:45:40;;;;;;;17.10;9.35;;;;;;;5.28;57.08;102089.63;3613990;39;20065;-68
2023/04/05 06:48:07;;;;;;;11.52;7.47;;;;;;;5.46;56.12;102077.72;3619535;39;20402;-68
2023/04/05 06:50:32;;;;;;;14.70;8.70;;;;;;;5.50;55.48;102077.63;3616385;39;20047;-68
2023/04/05 06:52:58;;;;;;;14.63;8.10;;;;;;;5.73;55.37;102076.25;3616113;39;20478;-69
2023/04/05 06:55:23;;;;;;;12.52;8.07;;;;;;;5.94;55.67;102081.16;3615383;39;20081;-69
2023/04/05 06:57:49;;;;;;;14.27;8.25;;;;;;;6.17;54.29;102083.31;3618342;39;20053;-68
2023/04/05 07:00:16;;;;;;;12.65;8.75;;;;;;;6.38;54.23;102089.06;3617769;39;20060;-67
2023/04/05 07:02:42;;;;;;;14.35;9.13;;;;;;;6.58;54.59;102093.91;3614906;39;20163;-68
2023/04/05 07:05:07;;;;;;;11.43;8.43;;;;;;;6.71;53.37;102093.56;3618885;39;20051;-67
2023/04/05 07:07:43;;;;;;;11.48;7.97;;;;;;;6.89;52.05;102091.34;3609197;39;20055;-68
2023/04/05 07:10:09;;;;;;;21.25;12.80;;;;;;;7.10;51.73;102085.41;3618837;39;20083;-67
2023/04/05 07:12:36;;;;;;;20.10;10.25;;;;;;;7.13;51.52;102057.69;3605726;39;20317;-68
2023/04/05 07:15:02;;;;;;;13.70;8.77;;;;;;;7.38;50.69;102069.47;3613513;39;20054;-67
2023/04/05 07:17:27;;;;;;;13.77;8.40;;;;;;;7.70;50.12;102090.88;3614283;39;20053;-68
2023/04/05 07:19:53;;;;;;;11.93;8.05;;;;;;;7.83;49.81;102082.44;3615550;39;20313;-67
2023/04/05 07:22:18;;;;;;;17.27;8.68;;;;;;;8.11;49.28;102082.44;3618203;39;20088;-68
2023/04/05 07:24:45;;;;;;;12.30;8.15;;;;;;;8.36;48.84;102087.03;3616081;39;20046;-69
2023/04/05 07:27:11;;;;;;;15.65;8.40;;;;;;;8.44;47.04;102066.25;3614323;39;20079;-68
2023/04/05 07:29:39;;;;;;;13.52;8.23;;;;;;;8.68;46.80;102085.13;3613906;39;20051;-68
2023/04/05 07:32:06;;;;;;;16.42;8.75;;;;;;;8.90;46.52;102093.31;3615591;39;20049;-68
2023/04/05 07:34:33;;;;;;;13.15;8.48;;;;;;;9.10;46.89;102087.22;3613879;39;20396;-67
2023/04/05 07:36:59;;;;;;;15.63;8.38;;;;;;;9.29;44.64;102091.00;3608354;39;20296;-67
2023/04/05 07:39:25;;;;;;;14.27;8.25;;;;;;;9.50;44.84;102087.53;3614633;39;20054;-67
2023/04/05 07:41:51;;;;;;;15.25;7.82;;;;;;;9.58;43.74;102057.75;3613375;39;20065;-67
2023/04/05 07:44:17;;;;;;;14.00;8.48;;;;;;;9.95;43.29;102075.09;3618776;39;20084;-67
2023/04/05 07:46:46;;;;;;;12.73;7.90;;;;;;;10.04;42.44;102084.63;3604241;39;20046;-67
2023/04/05 07:49:11;;;;;;;15.18;7.80;;;;;;;10.25;43.01;102061.41;3614871;39;20083;-67
2023/04/05 07:51:37;;;;;;;14.38;8.00;;;;;;;10.59;41.90;102082.41;3613605;39;20063;-67
2023/04/05 07:54:04;;;;;;;12.43;8.18;;;;;;;10.76;42.31;102081.72;3616153;39;20047;-67
2023/04/05 07:56:31;;;;;;;14.43;8.43;;;;;;;10.77;40.14;102043.97;3616612;39;20054;-67
2023/04/05 07:58:58;;;;;;;12.48;8.73;;;;;;;11.24;40.18;102072.44;3598084;39;20062;-67
2023/04/05 08:01:26;;;;;;;16.92;8.80;;;;;;;11.54;39.21;102075.56;3613386;39;20047;-67
2023/04/05 08:03:56;;;;;;;15.70;10.43;;;;;;;11.78;39.85;102081.63;3613700;39;20120;-67
2023/04/05 08:06:23;;;;;;;12.50;7.15;;;;;;;11.70;38.49;102036.19;3615483;39;20403;-67
2023/04/05 08:08:51;;;;;;;11.30;7.25;;;;;;;12.06;39.43;102075.84;3616736;39;20122;-67
2023/04/05 08:11:17;;;;;;;10.82;6.85;;;;;;;12.23;37.18;102077.72;3614025;39;20054;-67
2023/04/05 08:13:43;;;;;;;12.82;7.78;;;;;;;12.24;38.98;102065.97;3606641;39;20489;-67
2023/04/05 08:16:10;;;;;;;9.75;7.10;;;;;;;12.49;37.05;102076.44;3615886;39;20361;-67
2023/04/05 08:18:36;;;;;;;12.82;7.85;;;;;;;12.53;36.21;102070.81;3612941;39;20102;-67
2023/04/05 08:21:03;;;;;;;12.98;7.20;;;;;;;12.49;36.13;102060.25;3616006;39;20055;-67
2023/04/05 08:23:30;;;;;;;11.63;7.07;;;;;;;12.62;36.79;102082.94;3616938;39;20053;-69
2023/04/05 08:25:55;;;;;;;11.93;7.15;;;;;;;12.73;35.64;102080.59;3613542;39;20116;-67
2023/04/05 08:28:21;;;;;;;10.50;7.05;;;;;;;12.76;36.24;102083.13;3613514;39;20051;-68
2023/04/05 08:30:47;;;;;;;13.85;6.88;;;;;;;12.89;35.73;102066.31;3614560;39;20073;-67
2023/04/05 08:33:13;;;;;;;11.10;6.65;;;;;;;13.17;33.74;102071.16;3614504;39;20058;-67
2023/04/05 08:35:39;;;;;;;9.23;5.90;;;;;;;13.38;34.21;102075.47;3617631;39;20053;-67
2023/04/05 08:38:11;;;;;;;10.25;6.05;;;;;;;13.60;33.35;102069.75;3605268;39;20315;-67
2023/04/05 08:40:42;;;;;;;9.50;5.60;;;;;;;13.71;34.53;102063.75;3605976;39;20055;-67
2023/04/05 08:43:26;;;;;;;9.70;6.43;;;;;;;13.79;33.39;102069.59;3617982;39;20055;-67
2023/04/05 08:45:52;;;;;;;7.25;6.10;;;;;;;13.90;33.17;102067.19;3615702;39;20139;-67
2023/04/05 08:48:19;;;;;;;11.30;7.07;;;;;;;13.82;33.36;102063.16;3618050;39;20043;-67
2023/04/05 08:50:52;;;;;;;9.30;5.78;;;;;;;13.94;33.26;102067.88;3614786;39;20112;-68
2023/04/05 08:53:19;;;;;;;8.15;5.25;;;;;;;14.19;32.18;102072.78;3616257;39;20070;-68
2023/04/05 08:56:06;;;;;;;9.35;5.15;;;;;;;14.46;31.61;102064.91;3617812;39;20433;-67
2023/04/05 08:58:36;;;;;;;7.03;4.50;;;;;;;14.33;31.15;102026.84;3618190;39;20062;-67
2023/04/05 09:01:05;;;;;;;8.52;4.90;;;;;;;14.76;29.58;102072.22;3616558;39;20069;-67
2023/04/05 09:03:39;;;;;;;7.75;5.65;;;;;;;14.75;30.09;102065.94;3607020;39;20075;-66
2023/04/05 09:06:10;;;;;;;6.82;5.50;;;;;;;14.88;30.62;102060.66;3614842;39;20058;-67
2023/04/05 09:08:37;;;;;;;6.35;5.30;;;;;;;14.80;29.85;102020.47;3617959;39;20125;-67
2023/04/05 09:11:04;;;;;;;10.18;5.90;;;;;;;15.12;29.08;102057.41;3615982;39;20103;-68
2023/04/05 09:13:30;;;;;;;12.55;6.38;;;;;;;15.09;29.54;102047.63;3615665;39;20035;-67
2023/04/05 09:15:56;;;;;;;8.77;5.72;;;;;;;15.03;29.58;102054.31;3616212;39;20135;-67
2023/04/05 09:18:22;;;;;;;8.93;6.72;;;;;;;15.13;29.95;102056.44;3615592;39;20425;-67
2023/04/05 09:20:48;;;;;;;10.02;5.57;;;;;;;15.31;28.65;102053.44;3609366;39;20243;-67
2023/04/05 09:23:13;;;;;;;12.50;6.43;;;;;;;15.26;29.04;102052.88;3617051;39;20062;-67
2023/04/05 09:25:41;;;;;;;9.85;6.38;;;;;;;15.17;30.16;102056.16;3614526;39;20051;-67
2023/04/05 09:28:08;;;;;;;10.80;6.35;;;;;;;15.20;29.99;102052.41;3614684;39;20050;-67
2023/04/05 09:30:36;;;;;;;8.02;5.75;;;;;;;15.18;29.28;102049.78;3608627;39;20074;-67
2023/04/05 09:33:05;;;;;;;7.10;5.20;;;;;;;15.17;28.45;102055.28;3615222;39;20050;-67
2023/04/05 09:35:32;;;;;;;8.23;5.35;;;;;;;15.17;28.57;102052.59;3615389;39;20050;-67
2023/04/05 09:38:01;;;;;;;7.47;5.30;;;;;;;15.19;28.04;102048.81;3616335;39;20051;-67
2023/04/05 09:40:48;;;;;;;11.32;5.32;;;;;;;15.32;28.87;102043.50;3615177;39;20069;-67
2023/04/05 09:43:38;;;;;;;10.48;6.03;;;;;;;15.36;29.38;102049.59;3617207;39;20042;-67
2023/04/05 09:46:04;;;;;;;9.35;6.03;;;;;;;15.45;28.88;102049.91;3615350;39;20054;-67
2023/04/05 09:48:47;;;;;;;8.75;6.20;;;;;;;15.25;27.81;101998.78;3616449;39;20301;-67
2023/04/05 09:51:15;;;;;;;9.85;6.47;;;;;;;15.67;28.73;102046.75;3614328;39;20091;-68
2023/04/05 09:54:02;;;;;;;10.38;5.88;;;;;;;15.58;27.06;102049.13;3615201;39;20299;-67
2023/04/05 09:56:33;;;;;;;8.38;5.65;;;;;;;15.58;27.09;102043.72;3617237;39;20035;-67
2023/04/05 09:59:11;;;;;;;8.80;6.25;;;;;;;15.46;28.88;102021.81;3615259;39;20391;-67
2023/04/05 10:01:42;;;;;;;9.65;5.70;;;;;;;15.73;27.92;102045.44;3616102;39;20046;-67
2023/04/05 10:04:08;;;;;;;8.80;5.82;;;;;;;15.81;27.32;102043.13;3614363;39;20043;-67
2023/04/05 10:06:39;;;;;;;8.23;6.03;;;;;;;15.78;27.73;102029.78;3613374;39;20290;-67
2023/04/05 10:09:07;;;;;;;7.60;6.10;;;;;;;16.00;26.42;102034.66;3617136;39;20047;-67
2023/04/05 10:11:35;;;;;;;6.88;5.47;;;;;;;15.99;25.79;102022.97;3616120;39;20367;-67
2023/04/05 10:14:05;;;;;;;9.32;5.85;;;;;;;16.06;27.50;102022.56;3617600;39;20055;-67
2023/04/05 10:17:26;;;;;;;9.23;6.07;;;;;;;16.06;26.09;102022.56;3614982;39;20368;-68
2023/04/05 10:20:13;;;;;;;11.68;6.65;;;;;;;16.04;27.47;102013.63;3604303;39;20063;-67
2023/04/05 10:23:10;;;;;;;11.35;6.32;;;;;;;16.16;28.76;102021.84;3603831;39;20045;-68
2023/04/05 10:25:50;;;;;;;7.28;6.03;;;;;;;16.11;26.23;102020.38;3614128;39;20116;-67
2023/04/05 10:28:33;;;;;;;10.70;6.85;;;;;;;16.25;28.28;102013.09;3614663;39;20055;-67
2023/04/05 10:31:14;;;;;;;8.90;6.88;;;;;;;16.25;27.32;102012.22;3618014;39;20075;-68
2023/04/05 10:33:44;;;;;;;11.85;7.20;;;;;;;16.31;27.53;102002.81;3614051;39;20043;-67
2023/04/05 10:36:49;;;;;;;9.35;6.93;;;;;;;16.40;25.85;102016.63;3614064;39;20086;-68
2023/04/05 10:39:32;;;;;;;8.50;7.10;;;;;;;16.47;29.29;102006.22;3605726;39;20166;-67
2023/04/05 10:42:39;;;;;;;8.77;6.72;;;;;;;16.39;25.91;102006.72;3621910;39;20046;-67
2023/04/05 10:45:10;;;;;;;10.77;6.65;;;;;;;16.55;27.74;102001.13;3617280;39;20293;-67
2023/04/05 10:47:43;;;;;;;9.05;6.90;;;;;;;16.71;27.39;102004.56;3618618;39;20046;-67
2023/04/05 10:50:14;;;;;;;;;;;;;;;16.65;27.08;101996.81;3619470;39;20120;-67
2023/04/05 10:52:42;;;;;;;10.18;7.00;;;;;;;16.88;26.96;101992.53;3613716;39;19961;-67
2023/04/05 10:55:09;;;;;;;10.63;6.82;;;;;;;16.94;25.44;101992.13;3615755;39;20057;-68
2023/04/05 10:57:37;;;;;;;9.88;7.18;;;;;;;17.11;25.31;101996.34;3617612;39;20081;-67
2023/04/05 11:00:05;;;;;;;11.48;6.97;;;;;;;17.10;28.60;101991.91;3614085;39;20120;-67
2023/04/05 11:02:32;;;;;;;11.27;7.15;;;;;;;17.23;26.07;101972.88;3617627;39;20055;-67
2023/04/05 11:05:04;;;;;;;11.50;7.43;;;;;;;17.24;26.42;101974.59;3620005;39;20051;-67
2023/04/05 11:07:44;;;;;;;9.52;6.85;;;;;;;16.99;26.11;101937.44;3613945;39;20378;-68
2023/04/05 11:10:18;;;;;;;9.88;7.07;;;;;;;17.18;26.58;101981.34;3615225;39;20055;-67
2023/04/05 11:12:52;;;;;;;10.77;7.13;;;;;;;17.24;25.28;101971.88;3615342;39;20062;-67
2023/04/05 11:15:26;;;;;;;10.93;7.30;;;;;;;16.65;25.50;101890.03;3614562;39;20053;-68
2023/04/05 11:18:15;;;;;;;8.55;7.03;;;;;;;16.97;26.58;101941.25;3614136;39;20054;-67
2023/04/05 11:20:47;;;;;;;10.40;7.03;;;;;;;16.98;24.90;101973.75;3615970;39;20053;-67
2023/04/05 11:23:17;;;;;;;12.73;6.25;;;;;;;17.15;26.10;101964.38;3616363;39;20046;-67
2023/04/05 11:26:05;;;;;;;8.73;7.20;;;;;;;17.30;24.54;101973.31;3617560;39;20050;-67
2023/04/05 11:28:39;;;;;;;10.52;7.10;;;;;;;17.50;26.25;101971.84;3617000;39;20055;-67
2023/04/05 11:31:17;;;;;;;10.85;7.05;;;;;;;17.90;24.27;101971.69;3617041;39;20053;-67
2023/04/05 11:33:49;;;;;;;9.60;6.82;;;;;;;18.10;24.58;101962.88;3614199;39;20124;-67
2023/04/05 11:36:35;;;;;;;10.32;6.80;;;;;;;18.15;23.55;101955.25;3614564;39;20090;-67